Time;durP1;ratioP1;P1;durP2;ratioP2;P2;SDS_P1;SDS_P2;PMS_P1;PMS_P2;Temp;Humidity;BMP_temperature;BMP_pressure;BME280_temperature;BME280_humidity;BME280_pressure;Samples;Min_cycle;Max_cycle;Signal;HPM_P1;HPM_P2
2021/09/07 00:00:42;;;;;;;10.32;4.85;;;17.80;91.50;;;;;;5013632;28;20343;-73
2021/09/07 00:03:07;;;;;;;9.27;5.10;;;17.90;91.40;;;;;;5014364;28;20029;-73
2021/09/07 00:05:33;;;;;;;8.70;4.70;;;17.90;91.40;;;;;;5013333;28;20050;-73
2021/09/07 00:07:58;;;;;;;8.13;4.28;;;17.90;91.40;;;;;;5014211;28;20057;-73
2021/09/07 00:10:24;;;;;;;8.60;4.38;;;17.90;91.30;;;;;;5014330;28;20025;-73
2021/09/07 00:12:50;;;;;;;9.77;4.88;;;17.90;91.20;;;;;;5013775;28;20100;-73
2021/09/07 00:15:17;;;;;;;8.32;4.53;;;18.00;91.10;;;;;;5012712;28;20024;-73
2021/09/07 00:17:43;;;;;;;9.40;4.30;;;18.00;91.10;;;;;;5013103;28;20125;-73
2021/09/07 00:20:10;;;;;;;9.40;4.85;;;18.00;91.00;;;;;;5012376;28;20108;-73
2021/09/07 00:22:36;;;;;;;9.18;4.35;;;18.00;91.00;;;;;;5013243;28;20029;-73
2021/09/07 00:25:04;;;;;;;11.23;5.15;;;18.10;91.00;;;;;;5013697;28;20037;-73
2021/09/07 00:27:30;;;;;;;9.85;4.57;;;18.00;91.00;;;;;;5013220;28;20380;-73
2021/09/07 00:29:55;;;;;;;10.60;5.10;;;18.10;91.00;;;;;;5014008;28;20014;-73
2021/09/07 00:32:21;;;;;;;9.80;4.97;;;18.10;91.00;;;;;;5013316;28;20037;-73
2021/09/07 00:34:46;;;;;;;9.75;4.60;;;18.10;91.00;;;;;;5012873;28;20026;-73
2021/09/07 00:37:12;;;;;;;8.95;4.60;;;18.10;91.00;;;;;;5013663;28;20505;-73
2021/09/07 00:39:38;;;;;;;9.68;4.93;;;18.10;91.00;;;;;;5013277;28;20026;-73
2021/09/07 00:42:04;;;;;;;9.23;5.18;;;18.10;91.00;;;;;;5012194;28;20128;-73
2021/09/07 00:44:29;;;;;;;13.32;4.95;;;18.10;90.90;;;;;;5013035;28;20454;-73
2021/09/07 00:47:07;;;;;;;10.45;5.05;;;18.10;91.00;;;;;;5013460;28;20022;-73
2021/09/07 00:49:35;;;;;;;9.18;4.95;;;18.20;91.00;;;;;;5012893;28;20113;-74
2021/09/07 00:52:02;;;;;;;9.80;4.55;;;18.10;91.00;;;;;;5013397;28;20026;-74
2021/09/07 00:54:31;;;;;;;10.13;5.03;;;18.20;91.00;;;;;;5012667;28;20037;-74
2021/09/07 00:56:57;;;;;;;9.68;4.80;;;18.20;91.00;;;;;;5012922;28;20097;-74
2021/09/07 00:59:23;;;;;;;9.65;5.20;;;18.20;91.10;;;;;;5012916;28;20026;-74
2021/09/07 01:01:50;;;;;;;14.77;5.38;;;18.20;91.00;;;;;;5011174;28;20045;-74
2021/09/07 01:04:17;;;;;;;14.20;5.18;;;18.20;90.90;;;;;;5011924;28;20048;-74
2021/09/07 01:06:42;;;;;;;9.07;4.85;;;18.20;90.90;;;;;;5012511;28;20501;-74
2021/09/07 01:09:08;;;;;;;11.82;5.45;;;18.20;90.80;;;;;;5011603;28;20049;-74
2021/09/07 01:11:35;;;;;;;9.25;4.78;;;18.20;90.80;;;;;;5013007;28;20112;-74
2021/09/07 01:14:01;;;;;;;9.02;4.40;;;18.20;90.90;;;;;;5014297;28;20026;-74
2021/09/07 01:16:27;;;;;;;9.70;4.68;;;18.20;90.80;;;;;;5013109;28;20076;-74
2021/09/07 01:18:53;;;;;;;9.68;4.68;;;18.20;90.80;;;;;;5012043;28;20026;-74
2021/09/07 01:21:19;;;;;;;9.25;4.63;;;18.20;90.80;;;;;;5012348;28;20119;-74
2021/09/07 01:23:47;;;;;;;10.30;4.97;;;18.20;90.90;;;;;;5012206;28;20022;-74
2021/09/07 01:26:17;;;;;;;14.05;5.03;;;18.30;90.90;;;;;;5012776;28;20040;-74
2021/09/07 01:28:43;;;;;;;7.35;4.05;;;18.20;90.90;;;;;;5012141;28;20026;-74
2021/09/07 01:31:10;;;;;;;9.60;4.95;;;18.20;90.90;;;;;;5012446;28;20025;-74
2021/09/07 01:33:39;;;;;;;10.15;4.82;;;18.30;91.00;;;;;;5012017;28;20116;-74
2021/09/07 01:36:06;;;;;;;11.05;5.05;;;18.20;91.00;;;;;;5012812;28;20014;-72
2021/09/07 01:38:33;;;;;;;9.95;4.85;;;18.30;91.00;;;;;;5011987;28;20072;-72
2021/09/07 01:41:00;;;;;;;10.07;4.80;;;18.20;90.90;;;;;;5012435;28;20078;-72
2021/09/07 01:43:26;;;;;;;9.95;5.30;;;18.20;91.00;;;;;;5011189;28;20021;-72
2021/09/07 01:45:53;;;;;;;9.50;5.25;;;18.20;91.00;;;;;;5011894;28;20083;-73
2021/09/07 01:48:20;;;;;;;11.38;5.10;;;18.20;91.00;;;;;;5011201;28;20025;-73
2021/09/07 01:50:46;;;;;;;10.70;5.38;;;18.10;91.00;;;;;;5012138;28;20032;-72
2021/09/07 01:53:12;;;;;;;9.32;4.60;;;18.10;91.10;;;;;;5011173;28;20022;-73
2021/09/07 01:55:38;;;;;;;11.68;5.18;;;18.10;91.20;;;;;;5011779;28;20117;-73
2021/09/07 01:58:04;;;;;;;10.75;5.28;;;18.00;91.20;;;;;;5027696;28;20351;-74
2021/09/07 02:00:30;;;;;;;10.27;5.00;;;18.00;91.10;;;;;;5011946;28;20414;-74
2021/09/07 02:02:56;;;;;;;11.43;5.70;;;18.00;91.10;;;;;;5011396;28;20076;-74
2021/09/07 02:05:21;;;;;;;10.43;5.07;;;18.00;91.20;;;;;;5011992;28;20022;-73
2021/09/07 02:07:47;;;;;;;10.68;4.90;;;18.10;91.20;;;;;;5011295;28;20025;-73
2021/09/07 02:10:13;;;;;;;11.40;5.15;;;18.10;91.20;;;;;;5010894;28;20049;-73
2021/09/07 02:12:40;;;;;;;12.05;5.78;;;18.10;91.10;;;;;;5011252;28;20529;-73
2021/09/07 02:15:07;;;;;;;12.18;5.57;;;18.10;91.00;;;;;;5012291;28;20046;-73
2021/09/07 02:17:33;;;;;;;16.42;5.93;;;18.10;90.90;;;;;;5012182;28;20175;-73
2021/09/07 02:19:59;;;;;;;9.55;5.22;;;18.10;90.90;;;;;;5011844;28;20054;-73
2021/09/07 02:22:25;;;;;;;12.30;5.65;;;18.20;90.80;;;;;;5012081;28;20041;-73
2021/09/07 02:24:51;;;;;;;9.23;5.10;;;18.20;90.80;;;;;;5011482;28;20026;-73
2021/09/07 02:27:18;;;;;;;13.32;5.63;;;18.20;90.90;;;;;;5011691;28;20022;-73
2021/09/07 02:29:43;;;;;;;10.40;5.15;;;18.20;90.80;;;;;;5011117;28;20046;-73
2021/09/07 02:32:09;;;;;;;8.65;4.78;;;18.20;90.80;;;;;;5011985;28;20057;-73
2021/09/07 02:34:35;;;;;;;12.95;5.45;;;18.20;90.70;;;;;;5011368;28;20097;-71
2021/09/07 02:37:01;;;;;;;11.13;5.60;;;18.20;90.70;;;;;;5011863;28;20061;-73
2021/09/07 02:39:27;;;;;;;10.77;5.32;;;18.20;90.80;;;;;;5011902;28;20094;-72
2021/09/07 02:41:53;;;;;;;12.00;5.32;;;18.20;90.80;;;;;;5011234;28;20096;-73
2021/09/07 02:44:19;;;;;;;11.88;5.47;;;18.20;90.80;;;;;;5011635;28;20034;-72
2021/09/07 02:46:45;;;;;;;11.55;5.32;;;18.20;90.90;;;;;;5011248;28;20028;-72
2021/09/07 02:49:12;;;;;;;13.02;5.63;;;18.20;90.90;;;;;;5011579;28;20027;-72
2021/09/07 02:51:38;;;;;;;13.95;6.07;;;18.20;90.90;;;;;;5011101;28;20036;-72
2021/09/07 02:54:04;;;;;;;11.13;5.78;;;18.20;91.00;;;;;;5012030;28;20154;-72
2021/09/07 02:56:29;;;;;;;12.52;5.63;;;18.20;91.00;;;;;;5010602;28;20477;-72
2021/09/07 02:58:55;;;;;;;10.48;4.82;;;18.20;90.90;;;;;;5011148;28;20955;-73
2021/09/07 03:01:21;;;;;;;13.80;5.80;;;18.20;90.90;;;;;;5010313;28;20045;-72
2021/09/07 03:03:47;;;;;;;12.00;5.43;;;18.20;90.90;;;;;;5010855;28;20463;-73
2021/09/07 03:06:13;;;;;;;11.00;5.28;;;18.20;90.90;;;;;;5010351;28;20022;-72
2021/09/07 03:08:39;;;;;;;10.10;5.53;;;18.20;90.90;;;;;;5010675;28;20029;-73
2021/09/07 03:11:05;;;;;;;11.07;5.82;;;18.20;90.90;;;;;;5011673;28;20026;-73
2021/09/07 03:13:31;;;;;;;11.43;5.10;;;18.30;90.90;;;;;;5011542;28;20056;-72
2021/09/07 03:15:56;;;;;;;11.90;5.45;;;18.20;90.90;;;;;;5011045;28;20065;-73
2021/09/07 03:18:22;;;;;;;11.48;5.18;;;18.20;91.00;;;;;;5006441;28;20041;-73
2021/09/07 03:20:48;;;;;;;11.55;5.60;;;18.20;90.90;;;;;;5010063;28;20049;-73
2021/09/07 03:23:14;;;;;;;12.70;5.32;;;18.20;90.80;;;;;;5012892;28;20378;-74
2021/09/07 03:25:40;;;;;;;13.15;5.72;;;18.20;90.90;;;;;;5028546;28;20113;-74
2021/09/07 03:28:05;;;;;;;13.55;5.93;;;18.20;90.90;;;;;;5012560;28;20160;-74
2021/09/07 03:30:31;;;;;;;13.15;5.78;;;18.20;90.90;;;;;;5037094;28;20050;-73
2021/09/07 03:32:57;;;;;;;12.15;5.93;;;18.20;90.90;;;;;;5003745;28;20549;-75
2021/09/07 03:35:23;;;;;;;14.77;5.82;;;18.10;90.90;;;;;;4999853;28;20070;-74
2021/09/07 03:37:48;;;;;;;13.73;5.68;;;18.20;91.00;;;;;;5013120;28;20562;-75
2021/09/07 03:40:14;;;;;;;11.23;5.78;;;18.10;91.00;;;;;;5014278;28;20025;-75
2021/09/07 03:42:41;;;;;;;12.50;6.40;;;18.20;91.00;;;;;;4999697;28;20439;-74
2021/09/07 03:45:11;;;;;;;11.55;5.70;;;18.10;91.00;;;;;;4994070;28;20069;-75
2021/09/07 03:47:37;;;;;;;12.88;6.57;;;18.10;91.00;;;;;;4992597;28;20018;-78
2021/09/07 03:50:03;;;;;;;13.13;6.30;;;18.10;91.00;;;;;;5004722;28;20025;-77
2021/09/07 03:52:29;;;;;;;13.13;6.03;;;18.10;91.00;;;;;;5012539;28;20036;-79
2021/09/07 03:54:56;;;;;;;14.88;6.10;;;18.10;91.10;;;;;;5024597;28;20116;-80
2021/09/07 03:57:22;;;;;;;12.82;6.53;;;18.10;91.20;;;;;;4991541;28;20022;-80
2021/09/07 03:59:47;;;;;;;12.15;5.97;;;18.00;91.20;;;;;;4990445;28;20089;-78
2021/09/07 04:02:13;;;;;;;13.60;6.75;;;18.00;91.20;;;;;;4991377;28;20030;-80
2021/09/07 04:04:39;;;;;;;14.52;5.82;;;18.00;91.20;;;;;;4992755;28;20025;-80
2021/09/07 04:07:05;;;;;;;15.70;7.10;;;17.90;91.20;;;;;;5007105;28;20145;-80
2021/09/07 04:09:30;;;;;;;13.13;6.03;;;17.90;91.30;;;;;;5009038;28;20021;-76
2021/09/07 04:11:56;;;;;;;12.63;6.38;;;17.90;91.30;;;;;;5008808;28;20034;-72
2021/09/07 04:14:22;;;;;;;13.05;5.70;;;17.80;91.30;;;;;;5007782;28;20112;-73
2021/09/07 04:16:47;;;;;;;12.68;7.13;;;17.80;91.40;;;;;;4998078;28;20460;-72
2021/09/07 04:19:13;;;;;;;12.38;6.35;;;17.80;91.40;;;;;;5004079;28;20843;-73
2021/09/07 04:21:39;;;;;;;13.93;6.72;;;17.70;91.40;;;;;;4998471;28;20053;-73
2021/09/07 04:24:05;;;;;;;13.60;6.57;;;17.70;91.40;;;;;;5003930;28;20363;-72
2021/09/07 04:26:31;;;;;;;13.95;6.90;;;17.60;91.40;;;;;;5018306;28;20030;-73
2021/09/07 04:28:58;;;;;;;12.57;6.28;;;17.60;91.40;;;;;;4993733;28;20026;-73
2021/09/07 04:31:24;;;;;;;16.88;7.18;;;17.60;91.40;;;;;;4993054;28;20175;-73
2021/09/07 04:33:50;;;;;;;13.95;6.70;;;17.60;91.70;;;;;;4991857;28;20128;-72
2021/09/07 04:36:15;;;;;;;14.50;6.95;;;17.60;91.40;;;;;;4993705;28;20022;-74
2021/09/07 04:38:41;;;;;;;12.40;6.55;;;17.60;91.50;;;;;;4994152;28;20030;-72
2021/09/07 04:41:07;;;;;;;13.02;6.30;;;17.60;91.50;;;;;;4993300;28;20035;-72
2021/09/07 04:43:32;;;;;;;14.20;6.75;;;17.50;91.40;;;;;;4994177;28;20344;-72
2021/09/07 04:45:58;;;;;;;11.43;5.85;;;17.50;91.40;;;;;;4993591;28;20101;-72
2021/09/07 04:48:24;;;;;;;12.73;6.20;;;17.50;91.50;;;;;;4993589;28;20382;-72
2021/09/07 04:50:49;;;;;;;15.18;7.00;;;17.50;91.50;;;;;;4993167;28;20022;-72
2021/09/07 04:53:15;;;;;;;11.80;6.03;;;17.50;91.50;;;;;;4993541;28;20093;-72
2021/09/07 04:55:41;;;;;;;11.77;6.30;;;17.50;91.50;;;;;;4993363;28;20467;-72
2021/09/07 04:58:06;;;;;;;12.60;6.45;;;17.50;91.50;;;;;;4992909;28;20097;-74
2021/09/07 05:00:32;;;;;;;12.55;6.15;;;17.50;91.60;;;;;;4993567;28;20031;-72
2021/09/07 05:02:58;;;;;;;16.23;6.78;;;17.50;91.60;;;;;;5007961;28;20521;-71
2021/09/07 05:05:24;;;;;;;13.98;6.28;;;17.50;91.60;;;;;;5008663;28;20019;-74
2021/09/07 05:07:50;;;;;;;14.55;7.05;;;17.50;91.70;;;;;;4991597;28;20483;-71
2021/09/07 05:10:15;;;;;;;15.20;6.80;;;17.50;91.70;;;;;;4993059;28;20030;-74
2021/09/07 05:12:41;;;;;;;12.80;6.18;;;17.50;91.70;;;;;;4993339;28;20022;-73
2021/09/07 05:15:07;;;;;;;15.40;7.35;;;17.50;91.60;;;;;;4992838;28;20023;-73
2021/09/07 05:17:33;;;;;;;13.60;6.93;;;17.50;91.60;;;;;;4992892;28;20026;-73
2021/09/07 05:19:59;;;;;;;13.20;6.97;;;17.50;91.60;;;;;;4992373;28;20054;-73
2021/09/07 05:22:25;;;;;;;12.60;6.50;;;17.50;91.60;;;;;;4993465;28;20039;-73
2021/09/07 05:24:51;;;;;;;14.70;6.30;;;17.50;91.50;;;;;;4992656;28;20053;-73
2021/09/07 05:27:16;;;;;;;16.23;6.75;;;17.60;91.50;;;;;;4993380;28;20108;-73
2021/09/07 05:29:42;;;;;;;16.92;7.72;;;17.50;91.40;;;;;;4992807;28;20029;-73
2021/09/07 05:32:08;;;;;;;11.57;6.30;;;17.60;91.40;;;;;;4992880;28;20072;-73
2021/09/07 05:34:34;;;;;;;14.20;6.97;;;17.60;91.50;;;;;;5008282;28;20379;-73
2021/09/07 05:36:59;;;;;;;14.57;6.65;;;17.50;91.50;;;;;;4992462;28;20037;-73
2021/09/07 05:39:25;;;;;;;13.75;7.05;;;17.50;91.50;;;;;;4992960;28;20045;-73
2021/09/07 05:41:52;;;;;;;14.25;7.28;;;17.50;91.60;;;;;;4991683;28;20089;-73
2021/09/07 05:44:18;;;;;;;13.30;7.47;;;17.50;91.60;;;;;;4992822;28;20061;-73
2021/09/07 05:46:44;;;;;;;14.98;7.47;;;17.50;91.60;;;;;;5007990;28;20053;-73
2021/09/07 05:49:09;;;;;;;15.40;6.93;;;17.50;91.60;;;;;;4991886;28;20062;-73
2021/09/07 05:51:35;;;;;;;16.20;7.50;;;17.50;91.60;;;;;;4992762;28;20456;-73
2021/09/07 05:54:01;;;;;;;17.05;8.25;;;17.50;91.60;;;;;;4991941;28;20435;-73
2021/09/07 05:56:28;;;;;;;17.38;7.22;;;17.50;91.60;;;;;;4992904;28;20027;-73
2021/09/07 05:58:54;;;;;;;15.30;7.32;;;17.50;91.70;;;;;;5007128;28;20022;-73
2021/09/07 06:01:20;;;;;;;14.32;7.20;;;17.50;91.70;;;;;;4992600;28;20558;-73
2021/09/07 06:03:46;;;;;;;16.30;8.45;;;17.50;91.70;;;;;;4992782;28;20101;-73
2021/09/07 06:06:11;;;;;;;13.00;7.28;;;17.50;91.70;;;;;;4991940;28;20485;-73
2021/09/07 06:08:37;;;;;;;13.80;7.70;;;17.50;91.70;;;;;;4992593;28;20062;-73
2021/09/07 06:11:04;;;;;;;17.40;8.35;;;17.50;91.70;;;;;;4991971;28;20157;-73
2021/09/07 06:13:31;;;;;;;17.15;8.45;;;17.60;91.70;;;;;;4992793;28;20023;-72
2021/09/07 06:15:57;;;;;;;15.55;7.95;;;17.60;91.70;;;;;;4991894;28;20070;-72
2021/09/07 06:18:23;;;;;;;18.80;8.85;;;17.60;91.60;;;;;;5007556;28;20378;-72
2021/09/07 06:20:48;;;;;;;18.05;9.05;;;17.60;91.60;;;;;;4992290;28;20430;-73
2021/09/07 06:23:14;;;;;;;17.92;8.18;;;17.70;91.60;;;;;;4991689;28;20028;-72
2021/09/07 06:25:40;;;;;;;16.90;8.48;;;17.70;91.50;;;;;;5007375;28;20053;-72
2021/09/07 06:28:06;;;;;;;17.63;8.50;;;17.80;91.30;;;;;;5006655;28;20053;-73
2021/09/07 06:30:31;;;;;;;18.17;8.23;;;17.90;91.20;;;;;;4992395;28;20377;-72
2021/09/07 06:32:57;;;;;;;16.10;8.02;;;18.00;91.10;;;;;;4991476;28;20041;-72
2021/09/07 06:35:23;;;;;;;18.10;8.20;;;18.10;91.00;;;;;;5007564;28;20029;-72
2021/09/07 06:37:49;;;;;;;18.38;8.73;;;18.20;90.90;;;;;;4992257;28;20387;-72
2021/09/07 06:40:14;;;;;;;16.63;8.18;;;18.20;90.80;;;;;;4991670;28;20029;-72
2021/09/07 06:42:40;;;;;;;20.17;8.93;;;18.30;90.80;;;;;;4992600;28;20532;-72
2021/09/07 06:45:07;;;;;;;18.00;8.38;;;18.40;90.80;;;;;;4991865;28;20026;-72
2021/09/07 06:47:32;;;;;;;17.52;8.60;;;18.40;90.70;;;;;;4992197;28;20019;-72
2021/09/07 06:50:02;;;;;;;17.27;7.97;;;18.50;90.60;;;;;;4991156;28;20096;-72
2021/09/07 06:52:28;;;;;;;16.67;9.27;;;18.50;90.60;;;;;;4992356;28;20022;-72
2021/09/07 06:54:54;;;;;;;18.45;9.27;;;18.60;90.50;;;;;;4994046;28;20031;-72
2021/09/07 06:57:20;;;;;;;16.08;7.97;;;18.70;90.40;;;;;;5010823;28;20036;-72
2021/09/07 06:59:45;;;;;;;17.10;8.13;;;18.70;90.30;;;;;;4995734;28;20490;-72
2021/09/07 07:02:11;;;;;;;16.20;8.18;;;18.70;90.20;;;;;;4995084;28;20035;-72
2021/09/07 07:04:37;;;;;;;18.00;8.88;;;18.80;90.10;;;;;;4995697;28;20101;-73
2021/09/07 07:07:02;;;;;;;17.02;8.93;;;18.80;90.10;;;;;;4995073;28;20029;-73
2021/09/07 07:09:28;;;;;;;16.90;8.73;;;18.90;90.00;;;;;;4995542;28;20022;-72
2021/09/07 07:11:54;;;;;;;16.92;8.48;;;19.00;90.00;;;;;;4994038;28;20026;-73
2021/09/07 07:14:22;;;;;;;15.88;8.35;;;19.00;90.00;;;;;;4995431;28;20096;-72
2021/09/07 07:16:49;;;;;;;17.88;8.40;;;19.10;90.00;;;;;;5010517;28;20026;-73
2021/09/07 07:19:15;;;;;;;19.77;9.55;;;19.20;90.00;;;;;;4994971;28;20058;-73
2021/09/07 07:21:41;;;;;;;18.55;9.32;;;19.20;89.80;;;;;;4995459;28;20179;-73
2021/09/07 07:24:07;;;;;;;17.95;9.32;;;19.30;89.80;;;;;;4994855;28;20446;-73
2021/09/07 07:26:32;;;;;;;16.90;8.20;;;19.40;89.80;;;;;;4995623;28;20378;-73
2021/09/07 07:28:58;;;;;;;18.50;8.85;;;19.40;89.60;;;;;;4995102;28;20076;-73
2021/09/07 07:31:24;;;;;;;19.58;9.07;;;19.50;89.40;;;;;;5010508;28;20018;-73
2021/09/07 07:33:50;;;;;;;21.02;9.57;;;19.50;89.10;;;;;;4995287;28;20463;-74
2021/09/07 07:36:15;;;;;;;17.88;9.80;;;19.60;88.90;;;;;;4994352;28;20226;-74
2021/09/07 07:38:41;;;;;;;19.15;9.23;;;19.60;88.70;;;;;;4994846;28;20101;-73
2021/09/07 07:41:07;;;;;;;20.52;9.55;;;19.70;88.50;;;;;;4994431;28;20382;-73
2021/09/07 07:43:36;;;;;;;19.27;9.60;;;19.70;88.50;;;;;;4995129;28;20366;-73
2021/09/07 07:46:03;;;;;;;19.25;9.40;;;19.80;88.30;;;;;;4994389;28;20076;-73
2021/09/07 07:48:28;;;;;;;18.77;9.27;;;19.90;88.10;;;;;;4995015;28;20050;-73
2021/09/07 07:50:54;;;;;;;22.67;10.80;;;19.90;87.90;;;;;;4995206;28;20463;-73
2021/09/07 07:53:21;;;;;;;20.17;9.50;;;20.00;87.80;;;;;;4994119;28;20084;-73
2021/09/07 07:55:46;;;;;;;17.13;9.43;;;20.10;87.60;;;;;;4994886;28;20471;-73
2021/09/07 07:58:12;;;;;;;19.10;9.98;;;20.10;87.40;;;;;;4994002;28;20033;-73
2021/09/07 08:00:37;;;;;;;17.63;8.77;;;20.20;87.10;;;;;;4994763;28;20022;-73
2021/09/07 08:03:03;;;;;;;20.77;10.27;;;20.30;86.90;;;;;;5009202;28;20023;-73
2021/09/07 08:05:29;;;;;;;21.58;9.77;;;20.40;86.70;;;;;;4994266;28;20399;-73
2021/09/07 08:07:54;;;;;;;20.67;10.07;;;20.40;86.50;;;;;;4994738;28;20463;-73
2021/09/07 08:13:05;;;;;;;18.27;9.48;;;20.50;86.20;;;;;;4993747;28;20033;-73
2021/09/07 08:15:30;;;;;;;16.75;8.52;;;20.60;86.20;;;;;;4994452;28;20533;-72
2021/09/07 08:17:56;;;;;;;22.90;10.05;;;20.60;86.00;;;;;;4994503;28;20102;-73
2021/09/07 08:20:22;;;;;;;19.00;9.57;;;20.70;85.90;;;;;;4993404;28;20070;-73
2021/09/07 08:22:47;;;;;;;16.30;7.72;;;20.70;85.60;;;;;;4994396;28;20459;-72
2021/09/07 08:25:13;;;;;;;17.45;8.63;;;20.80;85.50;;;;;;4993791;28;20058;-73
2021/09/07 08:27:39;;;;;;;19.35;9.85;;;20.80;85.40;;;;;;5009256;28;20026;-73
2021/09/07 08:30:06;;;;;;;15.82;8.65;;;20.90;85.30;;;;;;4993599;28;20030;-73
2021/09/07 08:32:32;;;;;;;15.57;8.68;;;20.90;85.20;;;;;;4994117;28;20022;-73
2021/09/07 08:34:57;;;;;;;16.60;8.60;;;20.90;85.10;;;;;;4994150;28;20059;-73
2021/09/07 08:37:23;;;;;;;14.02;7.93;;;21.00;85.00;;;;;;4993526;28;20438;-73
2021/09/07 08:39:49;;;;;;;15.82;7.93;;;21.00;84.90;;;;;;4994322;28;20042;-73
2021/09/07 08:42:15;;;;;;;15.15;7.32;;;21.10;84.80;;;;;;5008307;28;20376;-73
2021/09/07 08:44:46;;;;;;;14.27;7.53;;;21.10;84.60;;;;;;4993932;28;20049;-73
2021/09/07 08:47:17;;;;;;;14.32;7.22;;;21.20;84.10;;;;;;4992867;28;20494;-73
2021/09/07 08:49:44;;;;;;;11.55;5.80;;;21.20;83.80;;;;;;5009139;28;20093;-73
2021/09/07 08:52:13;;;;;;;13.48;7.10;;;21.20;83.70;;;;;;4993073;28;20034;-73
2021/09/07 08:54:39;;;;;;;11.23;6.22;;;21.20;83.50;;;;;;5008687;28;20115;-73
2021/09/07 08:57:05;;;;;;;15.95;8.18;;;21.30;83.30;;;;;;4992810;28;20538;-73
2021/09/07 08:59:32;;;;;;;14.27;7.28;;;21.30;83.20;;;;;;4993641;28;20065;-73
2021/09/07 09:02:11;;;;;;;14.82;7.68;;;21.30;83.00;;;;;;4992373;28;20050;-73
2021/09/07 09:04:36;;;;;;;16.75;8.07;;;21.40;82.70;;;;;;5008862;28;20444;-73
2021/09/07 09:07:02;;;;;;;14.07;7.35;;;21.40;82.80;;;;;;4992501;28;20106;-73
2021/09/07 09:09:37;;;;;;;13.27;7.43;;;21.40;82.80;;;;;;4993407;28;20026;-73
2021/09/07 09:12:03;;;;;;;13.85;7.85;;;21.40;82.60;;;;;;4992929;28;20404;-73
2021/09/07 09:14:46;;;;;;;14.70;8.18;;;21.30;82.60;;;;;;4993379;28;20029;-73
2021/09/07 09:17:18;;;;;;;15.82;8.00;;;21.30;82.60;;;;;;4991994;28;20481;-73
2021/09/07 09:20:04;;;;;;;16.33;6.95;;;21.30;82.50;;;;;;4993361;28;20438;-73
2021/09/07 09:22:50;;;;;;;14.45;7.13;;;21.30;82.60;;;;;;4993508;28;20042;-73
2021/09/07 09:25:19;;;;;;;15.32;8.02;;;21.30;82.50;;;;;;5007684;28;20053;-73
2021/09/07 09:27:54;;;;;;;13.38;6.30;;;21.30;82.60;;;;;;4992888;28;20022;-73
2021/09/07 09:30:24;;;;;;;13.98;7.40;;;21.30;82.60;;;;;;4992817;28;20578;-72
2021/09/07 09:32:51;;;;;;;17.13;7.25;;;21.30;82.50;;;;;;4993538;28;20030;-72
2021/09/07 09:35:17;;;;;;;12.68;6.53;;;21.20;82.40;;;;;;4992417;28;20109;-74
2021/09/07 09:37:53;;;;;;;14.80;6.50;;;21.20;82.50;;;;;;4992985;28;20518;-74
2021/09/07 09:40:19;;;;;;;11.40;6.82;;;21.20;82.40;;;;;;4992108;28;20481;-74
2021/09/07 09:42:45;;;;;;;14.10;6.85;;;21.30;82.50;;;;;;4992871;28;20379;-74
2021/09/07 09:45:10;;;;;;;15.82;6.38;;;21.30;82.20;;;;;;5007365;28;20455;-74
2021/09/07 09:47:38;;;;;;;17.10;8.07;;;21.30;82.20;;;;;;4992881;28;20367;-72
2021/09/07 09:50:05;;;;;;;16.65;8.05;;;21.30;82.00;;;;;;4992765;28;20100;-74
2021/09/07 09:52:38;;;;;;;16.75;9.23;;;21.30;81.90;;;;;;5008007;28;20387;-72
2021/09/07 09:55:06;;;;;;;16.95;7.72;;;21.30;81.70;;;;;;5007781;28;20022;-71
2021/09/07 09:57:33;;;;;;;12.90;6.63;;;21.40;81.70;;;;;;4992687;28;20022;-74
2021/09/07 10:00:02;;;;;;;15.88;7.30;;;21.40;81.40;;;;;;4992355;28;20022;-72
2021/09/07 10:02:29;;;;;;;14.35;7.65;;;21.50;81.30;;;;;;4991626;28;20027;-72
2021/09/07 10:04:55;;;;;;;15.30;8.35;;;21.60;81.00;;;;;;5007705;28;20104;-72
2021/09/07 10:07:21;;;;;;;15.75;7.93;;;21.70;80.60;;;;;;4991682;28;20074;-72
2021/09/07 10:09:48;;;;;;;15.05;7.00;;;21.80;80.20;;;;;;4991148;28;20438;-72
2021/09/07 10:12:22;;;;;;;12.80;6.85;;;21.90;79.90;;;;;;4991846;28;20022;-72
2021/09/07 10:15:00;;;;;;;12.35;6.88;;;22.00;79.80;;;;;;4992173;28;20029;-72
2021/09/07 10:20:03;;;;;;;12.15;6.43;;;22.00;79.60;;;;;;4992142;28;20056;-72
2021/09/07 10:25:55;;;;;;;12.18;6.07;;;22.20;78.80;;;;;;4991728;28;20022;-72
2021/09/07 10:28:30;;;;;;;12.32;6.15;;;22.30;78.50;;;;;;5007067;28;20414;-76
2021/09/07 10:31:05;;;;;;;13.07;6.10;;;22.30;78.20;;;;;;4996351;28;20530;-73
2021/09/07 10:33:39;;;;;;;11.27;6.18;;;22.30;78.00;;;;;;4995754;28;20037;-73
2021/09/07 10:36:15;;;;;;;13.63;6.85;;;22.30;77.60;;;;;;4996304;28;20030;-73
2021/09/07 10:38:44;;;;;;;11.38;6.75;;;22.40;77.60;;;;;;4996096;28;20023;-73
2021/09/07 10:41:32;;;;;;;9.35;4.85;;;22.40;77.20;;;;;;4995510;28;20090;-74
2021/09/07 10:44:04;;;;;;;12.05;5.47;;;22.50;77.00;;;;;;4995900;28;20018;-73
2021/09/07 10:46:48;;;;;;;12.63;5.47;;;22.50;77.00;;;;;;4995283;28;20121;-73
2021/09/07 10:49:15;;;;;;;7.40;4.55;;;22.50;76.90;;;;;;4995215;28;20394;-74
2021/09/07 10:52:12;;;;;;;9.13;4.78;;;22.60;77.00;;;;;;5011307;28;20057;-73
2021/09/07 10:55:12;;;;;;;11.00;5.03;;;22.60;76.80;;;;;;5010899;28;20130;-73
2021/09/07 10:57:41;;;;;;;8.40;4.93;;;22.70;76.70;;;;;;4996013;28;20069;-73
2021/09/07 11:00:21;;;;;;;13.68;6.65;;;22.70;76.70;;;;;;4995792;28;20491;-73
2021/09/07 11:02:57;;;;;;;11.00;5.32;;;22.70;76.10;;;;;;5010892;28;20037;-73
2021/09/07 11:05:25;;;;;;;10.80;5.57;;;22.80;76.00;;;;;;4995443;28;20022;-73
2021/09/07 11:08:02;;;;;;;13.73;7.13;;;22.80;75.60;;;;;;5010799;28;20121;-73
2021/09/07 11:10:29;;;;;;;13.63;6.55;;;22.80;75.10;;;;;;4994806;28;20093;-73
2021/09/07 11:13:00;;;;;;;9.43;4.65;;;22.90;75.10;;;;;;4995597;28;20027;-73
2021/09/07 11:15:27;;;;;;;;;;;23.00;75.10;;;;;;5010456;28;20072;-74
2021/09/07 11:17:55;;;;;;;11.00;6.07;;;23.00;74.90;;;;;;4995269;28;20235;-73
2021/09/07 11:20:23;;;;;;;14.50;6.45;;;23.10;74.20;;;;;;4994604;28;20057;-73
2021/09/07 11:22:48;;;;;;;12.25;6.38;;;23.10;74.10;;;;;;4995513;28;20037;-73
2021/09/07 11:25:18;;;;;;;13.07;6.80;;;23.20;73.70;;;;;;4994824;28;20022;-73
2021/09/07 11:27:58;;;;;;;9.95;5.47;;;23.20;73.50;;;;;;4995418;28;20019;-73
2021/09/07 11:30:34;;;;;;;11.80;5.88;;;23.30;73.70;;;;;;4994773;28;20431;-73
2021/09/07 11:33:11;;;;;;;11.38;5.93;;;23.30;73.30;;;;;;4995248;28;20022;-73
2021/09/07 11:35:36;;;;;;;11.63;5.97;;;23.40;73.20;;;;;;4994558;28;20118;-73
2021/09/07 11:38:07;;;;;;;9.32;5.35;;;23.50;73.60;;;;;;4995073;28;20054;-74
2021/09/07 11:40:40;;;;;;;8.18;3.67;;;23.60;72.70;;;;;;4993902;28;20338;-74
2021/09/07 11:43:05;;;;;;;11.63;5.60;;;23.70;72.80;;;;;;4994889;28;20045;-73
2021/09/07 11:45:33;;;;;;;11.70;6.13;;;23.80;72.70;;;;;;4994731;28;20031;-72
2021/09/07 11:48:02;;;;;;;11.75;6.55;;;23.80;72.70;;;;;;4994675;28;20093;-73
2021/09/07 11:50:31;;;;;;;16.05;6.20;;;24.00;72.60;;;;;;4993946;28;20360;-72
2021/09/07 11:52:59;;;;;;;11.52;6.55;;;24.10;72.50;;;;;;4994707;28;20069;-72
2021/09/07 11:55:48;;;;;;;10.60;5.65;;;24.20;72.10;;;;;;4994205;28;20030;-73
2021/09/07 11:58:30;;;;;;;10.98;6.57;;;24.30;71.90;;;;;;4994376;28;20076;-72
2021/09/07 12:01:05;;;;;;;11.40;5.95;;;24.40;70.80;;;;;;4994630;28;20467;-72
2021/09/07 12:03:43;;;;;;;10.68;5.93;;;24.50;70.80;;;;;;4994004;28;20130;-73
2021/09/07 12:06:11;;;;;;;12.63;7.28;;;24.50;70.50;;;;;;4994414;28;20035;-73
2021/09/07 12:08:48;;;;;;;11.30;5.45;;;24.60;70.50;;;;;;4992513;28;20022;-73
2021/09/07 12:11:27;;;;;;;12.85;7.00;;;24.70;70.40;;;;;;4994499;28;20026;-73
2021/09/07 12:14:05;;;;;;;10.27;6.00;;;24.80;70.20;;;;;;4994079;28;20356;-73
2021/09/07 12:16:34;;;;;;;10.57;5.50;;;24.80;70.40;;;;;;4993832;28;20030;-73
2021/09/07 12:19:27;;;;;;;11.05;6.00;;;24.90;70.50;;;;;;4994379;28;20542;-73
2021/09/07 12:22:19;;;;;;;12.20;6.00;;;24.90;70.10;;;;;;4994366;28;20054;-73
2021/09/07 12:25:04;;;;;;;9.60;5.22;;;24.90;69.80;;;;;;4994073;28;20041;-73
2021/09/07 12:27:42;;;;;;;10.88;5.07;;;24.90;69.60;;;;;;4993446;28;20030;-73
2021/09/07 12:30:23;;;;;;;12.10;6.03;;;25.00;69.80;;;;;;4994234;28;20026;-73
2021/09/07 12:32:58;;;;;;;7.40;4.30;;;25.00;69.50;;;;;;4994192;28;20035;-73
2021/09/07 12:35:43;;;;;;;11.40;5.40;;;25.00;69.60;;;;;;4993320;28;20023;-73
2021/09/07 12:38:14;;;;;;;9.48;5.28;;;25.00;69.80;;;;;;4993958;28;20486;-73
2021/09/07 12:40:53;;;;;;;10.27;4.82;;;25.00;69.50;;;;;;4992106;28;20430;-73
2021/09/07 12:43:26;;;;;;;10.23;3.88;;;25.00;69.80;;;;;;4993018;28;20039;-73
2021/09/07 12:45:54;;;;;;;10.43;4.68;;;25.00;69.00;;;;;;4994041;28;20019;-73
2021/09/07 12:48:20;;;;;;;8.27;4.57;;;25.00;68.90;;;;;;4993096;28;20462;-73
2021/09/07 12:50:47;;;;;;;10.60;4.82;;;25.00;68.60;;;;;;4993098;28;20117;-73